sensor_id;sensor_type;location;lat;lon;timestamp;P1;durP1;ratioP1;P2;durP2;ratioP2
71856;SDS011;63344;46.980;28.882;2024-01-25T00:01:02;39.10;;;13.93;;
71856;SDS011;63344;46.980;28.882;2024-01-25T00:03:40;44.20;;;18.00;;
71856;SDS011;63344;46.980;28.882;2024-01-25T00:06:07;50.95;;;18.83;;
71856;SDS011;63344;46.980;28.882;2024-01-25T00:08:36;53.03;;;19.15;;
71856;SDS011;63344;46.980;28.882;2024-01-25T00:11:04;53.60;;;17.10;;
71856;SDS011;63344;46.980;28.882;2024-01-25T00:13:33;55.45;;;19.10;;
71856;SDS011;63344;46.980;28.882;2024-01-25T00:16:01;38.08;;;15.30;;
71856;SDS011;63344;46.980;28.882;2024-01-25T00:18:28;38.25;;;13.60;;
71856;SDS011;63344;46.980;28.882;2024-01-25T00:20:57;44.15;;;17.02;;
71856;SDS011;63344;46.980;28.882;2024-01-25T00:23:24;40.28;;;15.77;;
71856;SDS011;63344;46.980;28.882;2024-01-25T00:25:51;54.67;;;19.52;;
71856;SDS011;63344;46.980;28.882;2024-01-25T00:28:19;41.55;;;17.40;;
71856;SDS011;63344;46.980;28.882;2024-01-25T00:30:46;44.75;;;16.63;;
71856;SDS011;63344;46.980;28.882;2024-01-25T00:33:13;45.03;;;17.55;;
71856;SDS011;63344;46.980;28.882;2024-01-25T00:35:41;50.05;;;18.30;;
71856;SDS011;63344;46.980;28.882;2024-01-25T00:38:09;44.60;;;16.85;;
71856;SDS011;63344;46.980;28.882;2024-01-25T00:40:36;44.65;;;17.63;;
71856;SDS011;63344;46.980;28.882;2024-01-25T00:43:04;44.13;;;16.42;;
71856;SDS011;63344;46.980;28.882;2024-01-25T00:45:32;31.35;;;13.70;;
71856;SDS011;63344;46.980;28.882;2024-01-25T00:48:00;41.13;;;15.88;;
71856;SDS011;63344;46.980;28.882;2024-01-25T00:50:27;46.85;;;17.00;;
71856;SDS011;63344;46.980;28.882;2024-01-25T00:52:55;43.30;;;16.00;;
71856;SDS011;63344;46.980;28.882;2024-01-25T00:55:22;48.88;;;18.35;;
71856;SDS011;63344;46.980;28.882;2024-01-25T00:57:51;41.40;;;17.60;;
71856;SDS011;63344;46.980;28.882;2024-01-25T01:00:19;39.17;;;16.20;;
71856;SDS011;63344;46.980;28.882;2024-01-25T01:02:47;47.17;;;17.13;;
71856;SDS011;63344;46.980;28.882;2024-01-25T01:05:14;47.67;;;17.25;;
71856;SDS011;63344;46.980;28.882;2024-01-25T01:07:42;42.50;;;17.77;;
71856;SDS011;63344;46.980;28.882;2024-01-25T01:10:11;41.30;;;15.13;;
71856;SDS011;63344;46.980;28.882;2024-01-25T01:12:41;47.88;;;16.85;;
71856;SDS011;63344;46.980;28.882;2024-01-25T01:15:09;36.50;;;14.43;;
71856;SDS011;63344;46.980;28.882;2024-01-25T01:17:36;42.35;;;16.02;;
71856;SDS011;63344;46.980;28.882;2024-01-25T01:20:04;36.05;;;15.82;;
71856;SDS011;63344;46.980;28.882;2024-01-25T01:22:32;38.70;;;15.77;;
71856;SDS011;63344;46.980;28.882;2024-01-25T01:24:59;41.08;;;14.35;;
71856;SDS011;63344;46.980;28.882;2024-01-25T01:27:26;41.08;;;15.13;;
71856;SDS011;63344;46.980;28.882;2024-01-25T01:29:53;34.75;;;15.25;;
71856;SDS011;63344;46.980;28.882;2024-01-25T01:32:21;46.05;;;16.63;;
71856;SDS011;63344;46.980;28.882;2024-01-25T01:34:48;35.70;;;14.57;;
71856;SDS011;63344;46.980;28.882;2024-01-25T01:37:16;40.92;;;15.23;;
71856;SDS011;63344;46.980;28.882;2024-01-25T01:39:43;43.88;;;16.20;;
71856;SDS011;63344;46.980;28.882;2024-01-25T01:42:11;31.52;;;12.75;;
71856;SDS011;63344;46.980;28.882;2024-01-25T01:44:38;38.65;;;14.98;;
71856;SDS011;63344;46.980;28.882;2024-01-25T01:47:06;38.28;;;14.43;;
71856;SDS011;63344;46.980;28.882;2024-01-25T01:49:34;42.47;;;15.05;;
71856;SDS011;63344;46.980;28.882;2024-01-25T01:52:03;33.05;;;14.48;;
71856;SDS011;63344;46.980;28.882;2024-01-25T01:54:31;32.35;;;13.50;;
71856;SDS011;63344;46.980;28.882;2024-01-25T01:56:58;33.50;;;14.20;;
71856;SDS011;63344;46.980;28.882;2024-01-25T01:59:26;34.33;;;12.93;;
71856;SDS011;63344;46.980;28.882;2024-01-25T02:01:55;32.88;;;14.18;;
71856;SDS011;63344;46.980;28.882;2024-01-25T02:04:23;39.03;;;14.70;;
71856;SDS011;63344;46.980;28.882;2024-01-25T02:06:51;32.42;;;12.52;;
71856;SDS011;63344;46.980;28.882;2024-01-25T02:09:19;34.53;;;13.60;;
71856;SDS011;63344;46.980;28.882;2024-01-25T02:11:46;36.28;;;14.27;;
71856;SDS011;63344;46.980;28.882;2024-01-25T02:14:13;38.10;;;14.60;;
71856;SDS011;63344;46.980;28.882;2024-01-25T02:16:41;32.80;;;13.07;;
71856;SDS011;63344;46.980;28.882;2024-01-25T02:19:12;37.97;;;13.13;;
71856;SDS011;63344;46.980;28.882;2024-01-25T02:21:39;33.17;;;13.55;;
71856;SDS011;63344;46.980;28.882;2024-01-25T02:24:07;35.58;;;14.45;;
71856;SDS011;63344;46.980;28.882;2024-01-25T02:26:35;45.17;;;15.77;;
71856;SDS011;63344;46.980;28.882;2024-01-25T02:29:04;38.00;;;14.77;;
71856;SDS011;63344;46.980;28.882;2024-01-25T02:31:32;33.42;;;12.73;;
71856;SDS011;63344;46.980;28.882;2024-01-25T02:34:00;41.78;;;16.27;;
71856;SDS011;63344;46.980;28.882;2024-01-25T02:36:27;33.15;;;14.35;;
71856;SDS011;63344;46.980;28.882;2024-01-25T02:38:57;42.70;;;15.95;;
71856;SDS011;63344;46.980;28.882;2024-01-25T02:41:25;42.42;;;16.75;;
71856;SDS011;63344;46.980;28.882;2024-01-25T02:43:52;35.08;;;14.68;;
71856;SDS011;63344;46.980;28.882;2024-01-25T02:46:19;35.97;;;14.57;;
71856;SDS011;63344;46.980;28.882;2024-01-25T02:48:47;27.20;;;11.00;;
71856;SDS011;63344;46.980;28.882;2024-01-25T02:51:14;35.97;;;11.73;;
71856;SDS011;63344;46.980;28.882;2024-01-25T02:53:41;33.38;;;12.13;;
71856;SDS011;63344;46.980;28.882;2024-01-25T02:56:09;34.63;;;13.65;;
71856;SDS011;63344;46.980;28.882;2024-01-25T02:58:36;35.33;;;12.98;;
71856;SDS011;63344;46.980;28.882;2024-01-25T03:01:04;24.65;;;12.32;;
71856;SDS011;63344;46.980;28.882;2024-01-25T03:03:32;30.98;;;11.70;;
71856;SDS011;63344;46.980;28.882;2024-01-25T03:05:59;32.97;;;13.18;;
71856;SDS011;63344;46.980;28.882;2024-01-25T03:08:27;36.15;;;12.88;;
71856;SDS011;63344;46.980;28.882;2024-01-25T03:10:55;41.88;;;14.02;;
71856;SDS011;63344;46.980;28.882;2024-01-25T03:13:23;41.40;;;15.45;;
71856;SDS011;63344;46.980;28.882;2024-01-25T03:15:52;38.42;;;14.82;;
71856;SDS011;63344;46.980;28.882;2024-01-25T03:18:19;36.15;;;13.95;;
71856;SDS011;63344;46.980;28.882;2024-01-25T03:20:47;27.08;;;11.55;;
71856;SDS011;63344;46.980;28.882;2024-01-25T03:23:17;31.33;;;11.80;;
71856;SDS011;63344;46.980;28.882;2024-01-25T03:25:45;28.63;;;10.00;;
71856;SDS011;63344;46.980;28.882;2024-01-25T03:28:12;28.55;;;10.98;;
71856;SDS011;63344;46.980;28.882;2024-01-25T03:30:42;27.63;;;11.32;;
71856;SDS011;63344;46.980;28.882;2024-01-25T03:33:09;31.52;;;12.77;;
71856;SDS011;63344;46.980;28.882;2024-01-25T03:35:37;31.42;;;12.93;;
71856;SDS011;63344;46.980;28.882;2024-01-25T03:38:04;27.33;;;12.48;;
71856;SDS011;63344;46.980;28.882;2024-01-25T03:40:32;35.80;;;13.18;;
71856;SDS011;63344;46.980;28.882;2024-01-25T03:42:59;33.03;;;11.75;;
71856;SDS011;63344;46.980;28.882;2024-01-25T03:45:44;34.78;;;13.60;;
71856;SDS011;63344;46.980;28.882;2024-01-25T03:48:12;34.42;;;13.15;;
71856;SDS011;63344;46.980;28.882;2024-01-25T03:50:40;33.10;;;12.73;;
71856;SDS011;63344;46.980;28.882;2024-01-25T03:53:07;29.63;;;11.70;;
71856;SDS011;63344;46.980;28.882;2024-01-25T03:55:34;26.42;;;13.15;;
71856;SDS011;63344;46.980;28.882;2024-01-25T03:58:02;29.58;;;11.43;;
71856;SDS011;63344;46.980;28.882;2024-01-25T04:00:29;32.58;;;13.70;;
71856;SDS011;63344;46.980;28.882;2024-01-25T04:02:57;34.03;;;12.18;;
71856;SDS011;63344;46.980;28.882;2024-01-25T04:05:26;32.45;;;13.38;;
71856;SDS011;63344;46.980;28.882;2024-01-25T04:07:53;35.75;;;12.98;;
71856;SDS011;63344;46.980;28.882;2024-01-25T04:10:21;33.58;;;13.10;;
71856;SDS011;63344;46.980;28.882;2024-01-25T04:12:49;37.13;;;13.77;;
71856;SDS011;63344;46.980;28.882;2024-01-25T04:15:17;30.63;;;13.90;;
71856;SDS011;63344;46.980;28.882;2024-01-25T04:17:44;41.00;;;16.13;;
71856;SDS011;63344;46.980;28.882;2024-01-25T04:20:11;26.85;;;12.02;;
71856;SDS011;63344;46.980;28.882;2024-01-25T04:22:39;30.35;;;12.20;;
71856;SDS011;63344;46.980;28.882;2024-01-25T04:25:08;27.33;;;11.05;;
71856;SDS011;63344;46.980;28.882;2024-01-25T04:27:36;33.38;;;13.88;;
71856;SDS011;63344;46.980;28.882;2024-01-25T04:30:06;39.00;;;14.65;;
71856;SDS011;63344;46.980;28.882;2024-01-25T04:32:34;26.40;;;10.88;;
71856;SDS011;63344;46.980;28.882;2024-01-25T04:35:02;13.02;;;6.32;;
71856;SDS011;63344;46.980;28.882;2024-01-25T04:37:29;10.43;;;3.72;;
71856;SDS011;63344;46.980;28.882;2024-01-25T04:39:57;6.63;;;2.60;;
71856;SDS011;63344;46.980;28.882;2024-01-25T04:42:24;11.80;;;4.38;;
71856;SDS011;63344;46.980;28.882;2024-01-25T04:44:52;6.68;;;2.92;;
71856;SDS011;63344;46.980;28.882;2024-01-25T04:47:19;27.08;;;11.07;;
71856;SDS011;63344;46.980;28.882;2024-01-25T04:49:46;18.75;;;7.20;;
71856;SDS011;63344;46.980;28.882;2024-01-25T04:52:14;8.57;;;3.28;;
71856;SDS011;63344;46.980;28.882;2024-01-25T04:54:45;7.00;;;2.70;;
71856;SDS011;63344;46.980;28.882;2024-01-25T04:57:12;23.10;;;9.25;;
71856;SDS011;63344;46.980;28.882;2024-01-25T04:59:40;23.27;;;9.30;;
71856;SDS011;63344;46.980;28.882;2024-01-25T05:02:07;8.23;;;3.15;;
71856;SDS011;63344;46.980;28.882;2024-01-25T05:04:35;8.95;;;3.00;;
71856;SDS011;63344;46.980;28.882;2024-01-25T05:07:02;4.72;;;2.88;;
71856;SDS011;63344;46.980;28.882;2024-01-25T05:09:30;7.75;;;3.10;;
71856;SDS011;63344;46.980;28.882;2024-01-25T05:11:58;24.08;;;9.57;;
71856;SDS011;63344;46.980;28.882;2024-01-25T05:14:29;9.68;;;4.43;;
71856;SDS011;63344;46.980;28.882;2024-01-25T05:16:57;13.63;;;5.95;;
71856;SDS011;63344;46.980;28.882;2024-01-25T05:19:27;11.85;;;4.38;;
71856;SDS011;63344;46.980;28.882;2024-01-25T05:21:57;9.73;;;4.07;;
71856;SDS011;63344;46.980;28.882;2024-01-25T05:24:24;18.85;;;5.50;;
71856;SDS011;63344;46.980;28.882;2024-01-25T05:26:52;11.25;;;4.07;;
71856;SDS011;63344;46.980;28.882;2024-01-25T05:29:20;11.20;;;4.45;;
71856;SDS011;63344;46.980;28.882;2024-01-25T05:31:47;9.40;;;3.53;;
71856;SDS011;63344;46.980;28.882;2024-01-25T05:34:16;10.35;;;4.00;;
71856;SDS011;63344;46.980;28.882;2024-01-25T05:36:44;8.35;;;4.13;;
71856;SDS011;63344;46.980;28.882;2024-01-25T05:39:12;11.52;;;3.33;;
71856;SDS011;63344;46.980;28.882;2024-01-25T05:41:40;7.68;;;3.55;;
71856;SDS011;63344;46.980;28.882;2024-01-25T05:44:07;11.20;;;3.72;;
71856;SDS011;63344;46.980;28.882;2024-01-25T05:46:35;9.73;;;4.35;;
71856;SDS011;63344;46.980;28.882;2024-01-25T05:49:02;8.02;;;3.58;;
71856;SDS011;63344;46.980;28.882;2024-01-25T05:51:29;10.73;;;4.53;;
71856;SDS011;63344;46.980;28.882;2024-01-25T05:53:57;11.73;;;4.75;;
71856;SDS011;63344;46.980;28.882;2024-01-25T05:56:24;8.68;;;3.33;;
71856;SDS011;63344;46.980;28.882;2024-01-25T05:58:53;8.68;;;3.30;;
71856;SDS011;63344;46.980;28.882;2024-01-25T06:01:20;9.20;;;3.55;;
71856;SDS011;63344;46.980;28.882;2024-01-25T06:03:47;11.25;;;4.00;;
71856;SDS011;63344;46.980;28.882;2024-01-25T06:06:16;9.07;;;3.53;;
71856;SDS011;63344;46.980;28.882;2024-01-25T06:08:44;9.57;;;3.45;;
71856;SDS011;63344;46.980;28.882;2024-01-25T06:11:24;8.98;;;3.28;;
71856;SDS011;63344;46.980;28.882;2024-01-25T06:13:52;10.00;;;4.30;;
71856;SDS011;63344;46.980;28.882;2024-01-25T06:16:19;10.13;;;5.20;;
71856;SDS011;63344;46.980;28.882;2024-01-25T06:18:47;11.68;;;5.13;;
71856;SDS011;63344;46.980;28.882;2024-01-25T06:21:15;12.57;;;5.90;;
71856;SDS011;63344;46.980;28.882;2024-01-25T06:23:42;9.70;;;4.57;;
71856;SDS011;63344;46.980;28.882;2024-01-25T06:26:09;9.65;;;4.82;;
71856;SDS011;63344;46.980;28.882;2024-01-25T06:28:37;10.88;;;4.30;;
71856;SDS011;63344;46.980;28.882;2024-01-25T06:31:06;9.60;;;4.10;;
71856;SDS011;63344;46.980;28.882;2024-01-25T06:33:34;9.88;;;4.50;;
71856;SDS011;63344;46.980;28.882;2024-01-25T06:36:02;11.60;;;4.68;;
71856;SDS011;63344;46.980;28.882;2024-01-25T06:38:30;9.57;;;4.20;;
71856;SDS011;63344;46.980;28.882;2024-01-25T06:40:57;5.68;;;3.30;;
71856;SDS011;63344;46.980;28.882;2024-01-25T06:43:25;9.70;;;3.72;;
71856;SDS011;63344;46.980;28.882;2024-01-25T06:45:52;11.93;;;3.50;;
71856;SDS011;63344;46.980;28.882;2024-01-25T06:48:20;6.70;;;3.30;;
71856;SDS011;63344;46.980;28.882;2024-01-25T06:50:48;7.88;;;2.92;;
71856;SDS011;63344;46.980;28.882;2024-01-25T06:53:18;7.63;;;3.15;;
71856;SDS011;63344;46.980;28.882;2024-01-25T06:55:46;5.70;;;3.10;;
71856;SDS011;63344;46.980;28.882;2024-01-25T06:58:16;6.90;;;2.42;;
71856;SDS011;63344;46.980;28.882;2024-01-25T07:00:45;5.60;;;2.53;;
71856;SDS011;63344;46.980;28.882;2024-01-25T07:03:17;5.97;;;2.78;;
71856;SDS011;63344;46.980;28.882;2024-01-25T07:05:45;3.85;;;1.92;;
71856;SDS011;63344;46.980;28.882;2024-01-25T07:08:13;2.35;;;1.67;;
71856;SDS011;63344;46.980;28.882;2024-01-25T07:10:41;1.88;;;1.13;;
71856;SDS011;63344;46.980;28.882;2024-01-25T07:13:09;4.65;;;1.92;;
71856;SDS011;63344;46.980;28.882;2024-01-25T07:15:37;4.07;;;1.42;;
71856;SDS011;63344;46.980;28.882;2024-01-25T07:18:05;4.35;;;1.58;;
71856;SDS011;63344;46.980;28.882;2024-01-25T07:20:34;2.90;;;1.00;;
71856;SDS011;63344;46.980;28.882;2024-01-25T07:23:03;4.05;;;1.45;;
71856;SDS011;63344;46.980;28.882;2024-01-25T07:25:30;7.97;;;2.38;;
71856;SDS011;63344;46.980;28.882;2024-01-25T07:27:58;4.72;;;2.05;;
71856;SDS011;63344;46.980;28.882;2024-01-25T07:30:26;4.70;;;1.83;;
71856;SDS011;63344;46.980;28.882;2024-01-25T07:32:54;5.25;;;2.70;;
71856;SDS011;63344;46.980;28.882;2024-01-25T07:35:23;5.18;;;2.22;;
71856;SDS011;63344;46.980;28.882;2024-01-25T07:37:51;4.15;;;1.73;;
71856;SDS011;63344;46.980;28.882;2024-01-25T07:40:19;8.35;;;2.10;;
71856;SDS011;63344;46.980;28.882;2024-01-25T07:42:47;6.43;;;2.90;;
71856;SDS011;63344;46.980;28.882;2024-01-25T07:45:15;5.70;;;2.47;;
71856;SDS011;63344;46.980;28.882;2024-01-25T07:47:45;2.47;;;1.40;;
71856;SDS011;63344;46.980;28.882;2024-01-25T07:50:14;4.85;;;2.80;;
71856;SDS011;63344;46.980;28.882;2024-01-25T07:52:42;7.55;;;3.40;;
71856;SDS011;63344;46.980;28.882;2024-01-25T07:55:10;6.20;;;3.42;;
71856;SDS011;63344;46.980;28.882;2024-01-25T07:57:38;8.32;;;3.75;;
71856;SDS011;63344;46.980;28.882;2024-01-25T08:00:05;9.90;;;4.63;;
71856;SDS011;63344;46.980;28.882;2024-01-25T08:02:35;10.38;;;3.35;;
71856;SDS011;63344;46.980;28.882;2024-01-25T08:05:05;8.77;;;3.85;;
71856;SDS011;63344;46.980;28.882;2024-01-25T08:07:33;11.02;;;3.80;;
71856;SDS011;63344;46.980;28.882;2024-01-25T08:10:01;7.93;;;3.80;;
71856;SDS011;63344;46.980;28.882;2024-01-25T08:12:29;9.75;;;3.60;;
71856;SDS011;63344;46.980;28.882;2024-01-25T08:14:57;10.48;;;4.00;;
71856;SDS011;63344;46.980;28.882;2024-01-25T08:17:25;8.20;;;3.72;;
71856;SDS011;63344;46.980;28.882;2024-01-25T08:19:54;13.20;;;5.10;;
71856;SDS011;63344;46.980;28.882;2024-01-25T08:22:22;8.60;;;5.03;;
71856;SDS011;63344;46.980;28.882;2024-01-25T08:24:52;8.60;;;4.10;;
71856;SDS011;63344;46.980;28.882;2024-01-25T08:27:20;6.10;;;2.92;;
71856;SDS011;63344;46.980;28.882;2024-01-25T08:29:50;7.95;;;3.97;;
71856;SDS011;63344;46.980;28.882;2024-01-25T08:32:18;7.97;;;4.15;;
71856;SDS011;63344;46.980;28.882;2024-01-25T08:34:45;9.75;;;4.07;;
71856;SDS011;63344;46.980;28.882;2024-01-25T08:37:13;7.28;;;2.90;;
71856;SDS011;63344;46.980;28.882;2024-01-25T08:39:40;11.52;;;4.50;;
71856;SDS011;63344;46.980;28.882;2024-01-25T08:42:08;13.15;;;5.28;;
71856;SDS011;63344;46.980;28.882;2024-01-25T08:44:35;23.25;;;7.40;;
71856;SDS011;63344;46.980;28.882;2024-01-25T08:47:06;16.70;;;8.20;;
71856;SDS011;63344;46.980;28.882;2024-01-25T08:49:37;15.40;;;7.18;;
71856;SDS011;63344;46.980;28.882;2024-01-25T08:52:06;12.65;;;4.50;;
71856;SDS011;63344;46.980;28.882;2024-01-25T08:54:34;12.55;;;5.72;;
71856;SDS011;63344;46.980;28.882;2024-01-25T08:57:04;18.38;;;8.05;;
71856;SDS011;63344;46.980;28.882;2024-01-25T08:59:32;28.15;;;12.75;;
71856;SDS011;63344;46.980;28.882;2024-01-25T09:02:05;30.98;;;14.02;;
71856;SDS011;63344;46.980;28.882;2024-01-25T09:04:34;26.23;;;13.50;;
71856;SDS011;63344;46.980;28.882;2024-01-25T09:07:02;25.15;;;13.10;;
71856;SDS011;63344;46.980;28.882;2024-01-25T09:09:30;27.88;;;13.40;;
71856;SDS011;63344;46.980;28.882;2024-01-25T09:12:00;20.42;;;11.30;;
71856;SDS011;63344;46.980;28.882;2024-01-25T09:14:28;27.25;;;14.30;;
71856;SDS011;63344;46.980;28.882;2024-01-25T09:16:55;31.60;;;16.67;;
71856;SDS011;63344;46.980;28.882;2024-01-25T09:19:25;37.33;;;20.17;;
71856;SDS011;63344;46.980;28.882;2024-01-25T09:21:53;43.22;;;22.98;;
71856;SDS011;63344;46.980;28.882;2024-01-25T09:24:20;43.13;;;22.83;;
71856;SDS011;63344;46.980;28.882;2024-01-25T09:26:48;53.67;;;25.60;;
71856;SDS011;63344;46.980;28.882;2024-01-25T09:29:15;42.67;;;21.77;;
71856;SDS011;63344;46.980;28.882;2024-01-25T09:31:47;36.28;;;20.42;;
71856;SDS011;63344;46.980;28.882;2024-01-25T09:34:15;37.70;;;20.27;;
71856;SDS011;63344;46.980;28.882;2024-01-25T09:36:43;37.92;;;20.60;;
71856;SDS011;63344;46.980;28.882;2024-01-25T09:39:11;18.25;;;8.55;;
71856;SDS011;63344;46.980;28.882;2024-01-25T09:41:38;9.18;;;4.35;;
71856;SDS011;63344;46.980;28.882;2024-01-25T09:44:09;5.00;;;1.65;;
71856;SDS011;63344;46.980;28.882;2024-01-25T09:46:39;5.25;;;1.60;;
71856;SDS011;63344;46.980;28.882;2024-01-25T09:49:08;7.85;;;2.67;;
71856;SDS011;63344;46.980;28.882;2024-01-25T09:51:39;3.53;;;1.42;;
71856;SDS011;63344;46.980;28.882;2024-01-25T09:54:10;2.60;;;1.33;;
71856;SDS011;63344;46.980;28.882;2024-01-25T09:56:41;3.00;;;1.05;;
71856;SDS011;63344;46.980;28.882;2024-01-25T09:59:09;2.67;;;1.20;;
71856;SDS011;63344;46.980;28.882;2024-01-25T10:01:40;2.17;;;1.17;;
71856;SDS011;63344;46.980;28.882;2024-01-25T10:04:13;3.63;;;1.25;;
71856;SDS011;63344;46.980;28.882;2024-01-25T10:06:41;5.30;;;1.85;;
71856;SDS011;63344;46.980;28.882;2024-01-25T10:09:08;3.15;;;1.88;;
71856;SDS011;63344;46.980;28.882;2024-01-25T10:11:36;2.88;;;1.20;;
71856;SDS011;63344;46.980;28.882;2024-01-25T10:14:11;2.28;;;1.17;;
71856;SDS011;63344;46.980;28.882;2024-01-25T10:16:40;5.13;;;1.85;;
71856;SDS011;63344;46.980;28.882;2024-01-25T10:19:08;4.15;;;1.60;;
71856;SDS011;63344;46.980;28.882;2024-01-25T10:21:36;3.08;;;1.40;;
71856;SDS011;63344;46.980;28.882;2024-01-25T10:24:05;3.92;;;2.00;;
71856;SDS011;63344;46.980;28.882;2024-01-25T10:26:37;3.78;;;2.20;;
71856;SDS011;63344;46.980;28.882;2024-01-25T10:29:04;5.03;;;1.95;;
71856;SDS011;63344;46.980;28.882;2024-01-25T10:31:32;2.72;;;1.55;;
71856;SDS011;63344;46.980;28.882;2024-01-25T10:34:26;1.95;;;1.05;;
71856;SDS011;63344;46.980;28.882;2024-01-25T10:36:55;2.42;;;1.20;;
71856;SDS011;63344;46.980;28.882;2024-01-25T10:39:24;2.45;;;1.13;;
71856;SDS011;63344;46.980;28.882;2024-01-25T10:41:52;2.85;;;1.30;;
71856;SDS011;63344;46.980;28.882;2024-01-25T10:44:20;3.95;;;1.33;;
71856;SDS011;63344;46.980;28.882;2024-01-25T10:46:52;4.28;;;1.80;;
71856;SDS011;63344;46.980;28.882;2024-01-25T10:51:49;3.75;;;2.00;;
71856;SDS011;63344;46.980;28.882;2024-01-25T10:54:17;3.22;;;1.67;;
71856;SDS011;63344;46.980;28.882;2024-01-25T10:56:46;2.92;;;1.60;;
71856;SDS011;63344;46.980;28.882;2024-01-25T10:59:15;4.45;;;1.90;;
71856;SDS011;63344;46.980;28.882;2024-01-25T11:01:47;3.45;;;1.60;;
71856;SDS011;63344;46.980;28.882;2024-01-25T11:04:16;4.60;;;1.48;;
71856;SDS011;63344;46.980;28.882;2024-01-25T11:06:45;3.13;;;1.50;;
71856;SDS011;63344;46.980;28.882;2024-01-25T11:09:20;4.50;;;1.88;;
71856;SDS011;63344;46.980;28.882;2024-01-25T11:11:48;3.53;;;1.50;;
71856;SDS011;63344;46.980;28.882;2024-01-25T11:14:19;2.80;;;1.38;;
71856;SDS011;63344;46.980;28.882;2024-01-25T11:16:47;2.53;;;1.40;;
71856;SDS011;63344;46.980;28.882;2024-01-25T11:19:19;3.58;;;1.40;;
71856;SDS011;63344;46.980;28.882;2024-01-25T11:21:49;3.58;;;1.20;;
71856;SDS011;63344;46.980;28.882;2024-01-25T11:24:22;3.00;;;1.20;;
71856;SDS011;63344;46.980;28.882;2024-01-25T11:26:51;4.38;;;0.95;;
71856;SDS011;63344;46.980;28.882;2024-01-25T11:29:22;6.05;;;2.00;;
71856;SDS011;63344;46.980;28.882;2024-01-25T11:34:19;2.90;;;1.35;;
71856;SDS011;63344;46.980;28.882;2024-01-25T11:36:50;3.78;;;1.63;;
71856;SDS011;63344;46.980;28.882;2024-01-25T11:39:25;3.90;;;1.58;;
71856;SDS011;63344;46.980;28.882;2024-01-25T11:41:54;1.48;;;0.93;;
71856;SDS011;63344;46.980;28.882;2024-01-25T11:44:22;1.70;;;0.90;;
71856;SDS011;63344;46.980;28.882;2024-01-25T11:46:53;4.32;;;1.60;;
71856;SDS011;63344;46.980;28.882;2024-01-25T11:49:24;1.92;;;1.10;;
71856;SDS011;63344;46.980;28.882;2024-01-25T11:51:52;3.75;;;2.05;;
71856;SDS011;63344;46.980;28.882;2024-01-25T11:54:21;4.80;;;1.52;;
71856;SDS011;63344;46.980;28.882;2024-01-25T11:56:51;2.10;;;1.02;;
71856;SDS011;63344;46.980;28.882;2024-01-25T11:59:20;3.97;;;1.70;;
71856;SDS011;63344;46.980;28.882;2024-01-25T12:01:47;4.85;;;1.38;;
71856;SDS011;63344;46.980;28.882;2024-01-25T12:04:17;3.00;;;1.80;;
71856;SDS011;63344;46.980;28.882;2024-01-25T12:06:45;6.05;;;1.80;;
71856;SDS011;63344;46.980;28.882;2024-01-25T12:09:17;5.35;;;1.65;;
71856;SDS011;63344;46.980;28.882;2024-01-25T12:11:48;2.72;;;1.50;;
71856;SDS011;63344;46.980;28.882;2024-01-25T12:14:18;3.05;;;1.55;;
71856;SDS011;63344;46.980;28.882;2024-01-25T12:16:48;6.03;;;1.77;;
71856;SDS011;63344;46.980;28.882;2024-01-25T12:19:17;5.32;;;1.98;;
71856;SDS011;63344;46.980;28.882;2024-01-25T12:21:45;4.38;;;1.80;;
71856;SDS011;63344;46.980;28.882;2024-01-25T12:24:15;2.85;;;1.83;;
71856;SDS011;63344;46.980;28.882;2024-01-25T12:26:44;3.00;;;1.40;;
71856;SDS011;63344;46.980;28.882;2024-01-25T12:29:12;3.08;;;1.33;;
71856;SDS011;63344;46.980;28.882;2024-01-25T12:31:40;4.93;;;1.60;;
71856;SDS011;63344;46.980;28.882;2024-01-25T12:34:14;2.13;;;1.20;;
71856;SDS011;63344;46.980;28.882;2024-01-25T12:36:43;1.95;;;1.27;;
71856;SDS011;63344;46.980;28.882;2024-01-25T12:39:15;3.42;;;1.38;;
71856;SDS011;63344;46.980;28.882;2024-01-25T12:41:46;3.25;;;1.20;;
71856;SDS011;63344;46.980;28.882;2024-01-25T12:44:14;4.18;;;1.38;;
71856;SDS011;63344;46.980;28.882;2024-01-25T12:46:41;2.72;;;1.20;;
71856;SDS011;63344;46.980;28.882;2024-01-25T12:49:10;3.13;;;1.20;;
71856;SDS011;63344;46.980;28.882;2024-01-25T12:51:43;4.47;;;1.23;;
71856;SDS011;63344;46.980;28.882;2024-01-25T12:54:13;3.33;;;1.23;;
71856;SDS011;63344;46.980;28.882;2024-01-25T12:56:40;4.38;;;1.50;;
71856;SDS011;63344;46.980;28.882;2024-01-25T12:59:09;5.47;;;1.35;;
71856;SDS011;63344;46.980;28.882;2024-01-25T13:01:36;4.97;;;1.65;;
71856;SDS011;63344;46.980;28.882;2024-01-25T13:04:06;3.70;;;1.65;;
71856;SDS011;63344;46.980;28.882;2024-01-25T13:06:35;3.42;;;0.95;;
71856;SDS011;63344;46.980;28.882;2024-01-25T13:09:03;1.35;;;0.75;;
71856;SDS011;63344;46.980;28.882;2024-01-25T13:11:31;4.00;;;1.40;;
71856;SDS011;63344;46.980;28.882;2024-01-25T13:13:59;4.88;;;1.23;;
71856;SDS011;63344;46.980;28.882;2024-01-25T13:16:26;4.47;;;1.40;;
71856;SDS011;63344;46.980;28.882;2024-01-25T13:18:54;3.85;;;0.80;;
71856;SDS011;63344;46.980;28.882;2024-01-25T13:21:22;4.55;;;1.83;;
71856;SDS011;63344;46.980;28.882;2024-01-25T13:23:51;2.72;;;1.15;;
71856;SDS011;63344;46.980;28.882;2024-01-25T13:26:19;2.90;;;1.20;;
71856;SDS011;63344;46.980;28.882;2024-01-25T13:28:53;4.05;;;1.20;;
71856;SDS011;63344;46.980;28.882;2024-01-25T13:31:21;2.75;;;1.40;;
71856;SDS011;63344;46.980;28.882;2024-01-25T13:33:48;3.33;;;1.27;;
71856;SDS011;63344;46.980;28.882;2024-01-25T13:36:16;2.72;;;0.85;;
71856;SDS011;63344;46.980;28.882;2024-01-25T13:38:43;2.70;;;1.30;;
71856;SDS011;63344;46.980;28.882;2024-01-25T13:41:12;2.65;;;1.45;;
71856;SDS011;63344;46.980;28.882;2024-01-25T13:43:41;2.08;;;1.00;;
71856;SDS011;63344;46.980;28.882;2024-01-25T13:46:12;5.15;;;1.35;;
71856;SDS011;63344;46.980;28.882;2024-01-25T13:48:40;3.30;;;1.27;;
71856;SDS011;63344;46.980;28.882;2024-01-25T13:51:07;3.30;;;1.00;;
71856;SDS011;63344;46.980;28.882;2024-01-25T13:53:35;3.85;;;1.48;;
71856;SDS011;63344;46.980;28.882;2024-01-25T13:56:03;2.45;;;1.27;;
71856;SDS011;63344;46.980;28.882;2024-01-25T13:58:30;2.92;;;1.13;;
71856;SDS011;63344;46.980;28.882;2024-01-25T14:00:58;3.17;;;1.20;;
71856;SDS011;63344;46.980;28.882;2024-01-25T14:03:27;4.25;;;1.60;;
71856;SDS011;63344;46.980;28.882;2024-01-25T14:05:55;3.20;;;1.00;;
71856;SDS011;63344;46.980;28.882;2024-01-25T14:08:26;2.75;;;1.35;;
71856;SDS011;63344;46.980;28.882;2024-01-25T14:10:54;2.95;;;1.30;;
71856;SDS011;63344;46.980;28.882;2024-01-25T14:13:22;4.85;;;1.90;;
71856;SDS011;63344;46.980;28.882;2024-01-25T14:15:51;3.70;;;1.15;;
71856;SDS011;63344;46.980;28.882;2024-01-25T14:18:20;5.78;;;1.45;;
71856;SDS011;63344;46.980;28.882;2024-01-25T14:20:48;3.53;;;1.80;;
71856;SDS011;63344;46.980;28.882;2024-01-25T14:23:19;5.90;;;1.70;;
71856;SDS011;63344;46.980;28.882;2024-01-25T14:25:47;4.10;;;1.45;;
71856;SDS011;63344;46.980;28.882;2024-01-25T14:28:14;2.25;;;0.90;;
71856;SDS011;63344;46.980;28.882;2024-01-25T14:30:42;2.17;;;1.13;;
71856;SDS011;63344;46.980;28.882;2024-01-25T14:33:13;1.98;;;0.75;;
71856;SDS011;63344;46.980;28.882;2024-01-25T14:35:41;3.33;;;1.00;;